createdAt,value
2022-12-24T00:00:06.976Z,5.38
2022-12-24T00:02:33.804Z,5.45
2022-12-24T00:05:01.287Z,6.45
2022-12-24T00:07:28.983Z,5.13
2022-12-24T00:09:55.639Z,7.30
2022-12-24T00:12:22.392Z,5.35
2022-12-24T00:14:48.887Z,6.25
2022-12-24T00:17:15.563Z,6.03
2022-12-24T00:19:43.220Z,6.63
2022-12-24T00:22:10.009Z,5.60
2022-12-24T00:24:36.535Z,6.13
2022-12-24T00:27:03.579Z,5.55
2022-12-24T00:29:30.152Z,6.03
2022-12-24T00:31:56.714Z,7.68
2022-12-24T00:34:24.696Z,6.20
2022-12-24T00:36:51.612Z,5.97
2022-12-24T00:39:18.696Z,5.43
2022-12-24T00:41:45.238Z,5.30
2022-12-24T00:44:11.902Z,6.88
2022-12-24T00:46:40.940Z,7.32
2022-12-24T00:49:08.576Z,6.40
2022-12-24T00:51:35.966Z,7.18
2022-12-24T00:54:03.333Z,7.78
2022-12-24T00:56:30.295Z,7.32
2022-12-24T00:58:57.134Z,7.20
2022-12-24T01:01:24.857Z,6.78
2022-12-24T01:03:52.283Z,6.28
2022-12-24T01:06:21.736Z,5.88
2022-12-24T01:08:51.368Z,6.68
2022-12-24T01:11:18.167Z,6.22
2022-12-24T01:13:44.709Z,6.30
2022-12-24T01:16:17.868Z,7.43
2022-12-24T01:18:44.561Z,6.95
2022-12-24T01:21:11.170Z,7.40
2022-12-24T01:23:37.847Z,7.05
2022-12-24T01:26:05.394Z,7.55
2022-12-24T01:28:33.042Z,6.38
2022-12-24T01:31:00.853Z,8.57
2022-12-24T01:33:30.642Z,7.05
2022-12-24T01:35:57.220Z,7.43
2022-12-24T01:38:23.805Z,6.75
2022-12-24T01:41:08.770Z,6.97
2022-12-24T01:43:35.400Z,6.38
2022-12-24T01:46:05.863Z,6.80
2022-12-24T01:48:47.106Z,6.07
2022-12-24T01:51:30.610Z,5.28
2022-12-24T01:54:10.112Z,6.88
2022-12-24T01:56:42.684Z,6.07
2022-12-24T01:59:13.167Z,7.03
2022-12-24T02:01:39.863Z,5.38
2022-12-24T02:04:19.677Z,5.65
2022-12-24T02:06:46.250Z,5.70
2022-12-24T02:09:12.816Z,6.43
2022-12-24T02:11:43.912Z,5.15
2022-12-24T02:14:12.233Z,5.45
2022-12-24T02:16:50.405Z,5.70
2022-12-24T02:19:42.328Z,6.70
2022-12-24T02:22:17.990Z,6.60
2022-12-24T02:25:02.628Z,5.50
2022-12-24T02:27:55.731Z,6.32
2022-12-24T02:33:02.126Z,6.90
2022-12-24T02:35:44.542Z,6.68
2022-12-24T02:38:22.116Z,6.20
2022-12-24T02:41:10.529Z,7.88
2022-12-24T02:43:41.379Z,6.32
2022-12-24T02:46:12.883Z,6.50
2022-12-24T02:48:42.618Z,6.32
2022-12-24T02:51:11.182Z,6.95
2022-12-24T02:53:39.240Z,7.75
2022-12-24T02:56:23.631Z,7.88
2022-12-24T02:59:34.680Z,7.60
2022-12-24T03:02:04.302Z,6.75
2022-12-24T03:04:44.118Z,8.88
2022-12-24T03:07:21.398Z,7.20
2022-12-24T03:10:18.461Z,6.32
2022-12-24T03:12:50.534Z,6.63
2022-12-24T03:15:21.585Z,8.27
2022-12-24T03:17:51.316Z,6.93
2022-12-24T03:20:22.541Z,7.53
2022-12-24T03:22:50.189Z,8.90
2022-12-24T03:25:17.308Z,8.48
2022-12-24T03:27:44.708Z,9.25
2022-12-24T03:30:14.279Z,8.02
2022-12-24T03:32:41.472Z,8.00
2022-12-24T03:35:09.067Z,8.15
2022-12-24T03:37:35.816Z,8.82
2022-12-24T03:40:05.271Z,8.02
2022-12-24T03:42:31.909Z,8.82
2022-12-24T03:44:58.511Z,8.30
2022-12-24T03:47:25.065Z,9.13
2022-12-24T03:49:52.672Z,8.48
2022-12-24T03:52:19.263Z,8.77
2022-12-24T03:54:45.788Z,9.10
2022-12-24T03:57:12.415Z,10.95
2022-12-24T03:59:38.988Z,8.85
2022-12-24T04:02:05.767Z,10.40
2022-12-24T04:04:33.518Z,9.55
2022-12-24T04:07:00.497Z,9.48
2022-12-24T04:09:27.095Z,8.60
2022-12-24T04:11:53.611Z,9.43
2022-12-24T04:14:20.121Z,8.45
2022-12-24T04:16:46.772Z,8.95
2022-12-24T04:19:13.388Z,9.35
2022-12-24T04:21:39.940Z,9.02
2022-12-24T04:24:06.620Z,9.25
2022-12-24T04:26:33.213Z,7.55
2022-12-24T04:28:59.754Z,8.05
2022-12-24T04:31:26.298Z,8.43
2022-12-24T04:33:53.303Z,8.55
2022-12-24T04:36:20.607Z,8.35
2022-12-24T04:38:48.532Z,8.55
2022-12-24T04:41:23.351Z,7.72
2022-12-24T04:43:53.821Z,7.95
2022-12-24T04:46:26.055Z,8.07
2022-12-24T04:48:54.492Z,7.95
2022-12-24T04:51:21.512Z,9.30
2022-12-24T04:53:48.093Z,6.75
2022-12-24T04:56:20.658Z,8.43
2022-12-24T05:01:18.849Z,8.57
2022-12-24T05:03:46.193Z,8.00
2022-12-24T05:06:17.200Z,8.27
2022-12-24T05:08:43.935Z,8.50
2022-12-24T05:11:14.234Z,8.13
2022-12-24T05:13:46.542Z,7.35
2022-12-24T05:16:15.901Z,8.60
2022-12-24T05:18:42.524Z,9.00
2022-12-24T05:21:11.053Z,8.20
2022-12-24T05:23:56.757Z,7.93
2022-12-24T05:26:34.565Z,8.00
2022-12-24T05:29:03.026Z,9.60
2022-12-24T05:31:31.375Z,7.57
2022-12-24T05:33:58.043Z,9.75
2022-12-24T05:36:24.884Z,9.70
2022-12-24T05:38:51.586Z,10.00
2022-12-24T05:41:18.641Z,9.25
2022-12-24T05:43:46.397Z,9.48
2022-12-24T05:46:15.893Z,8.55
2022-12-24T05:48:42.574Z,8.32
2022-12-24T05:51:12.122Z,8.32
2022-12-24T05:53:39.100Z,8.45
2022-12-24T05:56:18.392Z,8.50
2022-12-24T05:58:45.377Z,8.05
2022-12-24T06:01:12.821Z,6.97
2022-12-24T06:03:39.785Z,7.55
2022-12-24T06:06:09.754Z,7.65
2022-12-24T06:08:37.365Z,8.68
2022-12-24T06:11:07.582Z,8.15
2022-12-24T06:13:35.027Z,9.02
2022-12-24T06:16:03.789Z,9.13
2022-12-24T06:18:32.762Z,7.55
2022-12-24T06:21:00.682Z,8.98
2022-12-24T06:23:29.989Z,9.25
2022-12-24T06:25:59.189Z,7.88
2022-12-24T06:28:25.761Z,8.60
2022-12-24T06:30:57.132Z,9.38
2022-12-24T06:33:27.579Z,8.07
2022-12-24T06:35:54.171Z,8.00
2022-12-24T06:38:20.672Z,7.45
2022-12-24T06:40:47.757Z,8.00
2022-12-24T06:43:15.124Z,7.90
2022-12-24T06:45:48.547Z,8.90
2022-12-24T06:48:15.839Z,8.38
2022-12-24T06:50:42.853Z,7.13
2022-12-24T06:53:10.271Z,9.70
2022-12-24T06:55:37.319Z,8.43
2022-12-24T06:58:04.608Z,8.25
2022-12-24T07:00:31.305Z,8.25
2022-12-24T07:02:58.048Z,8.77
2022-12-24T07:05:24.694Z,9.13
2022-12-24T07:07:51.293Z,8.85
2022-12-24T07:10:19.542Z,9.30
2022-12-24T07:12:46.460Z,8.05
2022-12-24T07:15:13.887Z,8.70
2022-12-24T07:17:40.560Z,9.65
2022-12-24T07:20:12.245Z,8.93
2022-12-24T07:22:38.766Z,8.48
2022-12-24T07:25:05.776Z,8.90
2022-12-24T07:27:32.358Z,8.50
2022-12-24T07:29:58.867Z,8.57
2022-12-24T07:32:25.404Z,8.32
2022-12-24T07:34:51.963Z,9.30
2022-12-24T07:37:18.503Z,7.88
2022-12-24T07:39:45.289Z,8.27
2022-12-24T07:42:11.885Z,8.20
2022-12-24T07:44:39.567Z,8.25
2022-12-24T07:47:06.213Z,8.32
2022-12-24T07:49:32.831Z,8.77
2022-12-24T07:51:59.419Z,8.57
2022-12-24T07:54:26.067Z,7.45
2022-12-24T07:56:52.652Z,7.78
2022-12-24T07:59:19.154Z,6.95
2022-12-24T08:01:46.489Z,6.95
2022-12-24T08:04:13.531Z,8.18
2022-12-24T08:06:40.244Z,8.75
2022-12-24T08:09:07.126Z,8.40
2022-12-24T08:11:33.755Z,8.73
2022-12-24T08:14:00.274Z,6.88
2022-12-24T08:16:26.913Z,7.10
2022-12-24T08:18:53.478Z,7.38
2022-12-24T08:21:19.991Z,7.93
2022-12-24T08:23:47.692Z,9.20
2022-12-24T08:26:15.612Z,8.25
2022-12-24T08:28:42.498Z,7.47
2022-12-24T08:31:09.229Z,7.88
2022-12-24T08:33:35.882Z,8.02
2022-12-24T08:36:03.043Z,7.88
2022-12-24T08:38:29.567Z,9.48
2022-12-24T08:40:56.152Z,7.20
2022-12-24T08:43:23.416Z,8.20
2022-12-24T08:45:50.341Z,8.55
2022-12-24T08:48:17.311Z,7.25
2022-12-24T08:50:44.310Z,8.02
2022-12-24T08:53:11.041Z,8.00
2022-12-24T08:55:37.745Z,8.32
2022-12-24T08:58:04.465Z,7.07
2022-12-24T09:00:31.074Z,7.47
2022-12-24T09:02:58.045Z,7.68
2022-12-24T09:05:25.959Z,7.50
2022-12-24T09:07:52.698Z,7.63
2022-12-24T09:10:19.281Z,7.93
2022-12-24T09:12:45.775Z,6.78
2022-12-24T09:15:14.095Z,7.88
2022-12-24T09:17:41.102Z,7.80
2022-12-24T09:20:08.694Z,8.13
2022-12-24T09:22:37.387Z,8.15
2022-12-24T09:25:06.180Z,8.68
2022-12-24T09:27:32.945Z,7.40
2022-12-24T09:29:59.480Z,7.47
2022-12-24T09:32:25.993Z,8.25
2022-12-24T09:34:52.530Z,7.18
2022-12-24T09:37:19.362Z,7.72
2022-12-24T09:39:45.833Z,6.25
2022-12-24T09:42:27.918Z,7.07
2022-12-24T09:45:01.379Z,9.15
2022-12-24T09:47:52.763Z,7.68
2022-12-24T09:50:37.963Z,7.35
2022-12-24T09:53:12.971Z,7.22
2022-12-24T09:55:51.957Z,7.28
2022-12-24T09:58:34.949Z,6.95
2022-12-24T10:01:01.654Z,8.05
2022-12-24T10:03:28.447Z,7.28
2022-12-24T10:06:27.019Z,8.57
2022-12-24T10:09:01.813Z,8.40
2022-12-24T10:14:16.500Z,7.38
2022-12-24T10:16:58.447Z,6.53
2022-12-24T10:20:07.532Z,7.65
2022-12-24T10:23:07.941Z,6.35
2022-12-24T10:25:43.192Z,7.25
2022-12-24T10:28:22.040Z,7.30
2022-12-24T10:30:53.894Z,7.28
2022-12-24T10:33:32.914Z,6.80
2022-12-24T10:35:59.544Z,7.20
2022-12-24T10:38:26.803Z,8.02
2022-12-24T10:40:56.379Z,9.05
2022-12-24T10:43:25.325Z,7.85
2022-12-24T10:45:56.700Z,7.35
2022-12-24T10:48:35.181Z,7.20
2022-12-24T10:51:21.903Z,7.63
2022-12-24T10:53:51.456Z,7.68
2022-12-24T10:56:20.387Z,7.93
2022-12-24T10:58:53.967Z,8.02
2022-12-24T11:01:41.525Z,8.43
2022-12-24T11:04:17.024Z,6.30
2022-12-24T11:07:01.543Z,7.40
2022-12-24T11:09:39.391Z,7.28
2022-12-24T11:12:15.514Z,7.00
2022-12-24T11:14:42.627Z,8.05
2022-12-24T11:17:20.664Z,6.88
2022-12-24T11:19:49.640Z,8.00
2022-12-24T11:22:24.736Z,6.68
2022-12-24T11:25:19.773Z,6.50
2022-12-24T11:27:51.706Z,7.72
2022-12-24T11:30:23.095Z,7.35
2022-12-24T11:33:09.848Z,7.53
2022-12-24T11:35:45.052Z,7.25
2022-12-24T11:38:17.704Z,8.02
2022-12-24T11:40:47.568Z,6.93
2022-12-24T11:43:18.038Z,7.25
2022-12-24T11:45:51.107Z,7.13
2022-12-24T11:48:34.756Z,6.00
2022-12-24T11:51:07.376Z,6.57
2022-12-24T11:56:47.265Z,7.28
2022-12-24T11:59:33.974Z,7.00
2022-12-24T12:02:15.556Z,7.35
2022-12-24T12:04:46.013Z,8.23
2022-12-24T12:07:18.045Z,6.97
2022-12-24T12:09:50.561Z,6.72
2022-12-24T12:12:28.767Z,6.13
2022-12-24T12:15:00.702Z,6.38
2022-12-24T12:17:43.808Z,5.90
2022-12-24T12:20:31.223Z,5.70
2022-12-24T12:23:03.861Z,5.65
2022-12-24T12:28:13.796Z,6.13
2022-12-24T12:30:41.048Z,5.22
2022-12-24T12:33:21.360Z,6.07
2022-12-24T12:35:49.017Z,5.55
2022-12-24T12:38:22.812Z,5.93
2022-12-24T12:41:05.463Z,6.20
2022-12-24T12:44:04.112Z,5.28
2022-12-24T12:46:54.892Z,6.50
2022-12-24T12:49:52.554Z,6.25
2022-12-24T12:52:37.829Z,5.75
2022-12-24T12:55:24.328Z,5.25
2022-12-24T12:57:56.230Z,5.45
2022-12-24T13:00:23.616Z,6.15
2022-12-24T13:03:12.519Z,4.70
2022-12-24T13:06:06.976Z,4.93
2022-12-24T13:09:09.240Z,5.57
2022-12-24T13:11:52.524Z,5.50
2022-12-24T13:14:27.950Z,4.90
2022-12-24T13:17:17.140Z,5.10
2022-12-24T13:20:05.275Z,5.13
2022-12-24T13:22:31.882Z,4.80
2022-12-24T13:24:58.499Z,5.55
2022-12-24T13:27:28.670Z,5.28
2022-12-24T13:30:06.957Z,5.53
2022-12-24T13:32:47.001Z,5.35
2022-12-24T13:35:19.541Z,4.57
2022-12-24T13:40:21.864Z,5.28
2022-12-24T13:42:58.489Z,5.10
2022-12-24T13:45:34.252Z,6.38
2022-12-24T13:48:22.228Z,4.78
2022-12-24T13:50:52.807Z,4.70
2022-12-24T13:53:32.501Z,5.70
2022-12-24T13:56:29.983Z,5.05
2022-12-24T13:59:17.050Z,5.28
2022-12-24T14:01:44.940Z,4.40
2022-12-24T14:04:24.637Z,5.95
2022-12-24T14:06:54.397Z,6.05
2022-12-24T14:09:25.006Z,5.40
2022-12-24T14:12:03.700Z,5.90
2022-12-24T14:14:36.204Z,5.28
2022-12-24T14:17:26.815Z,5.28
2022-12-24T14:19:59.449Z,4.85
2022-12-24T14:24:59.007Z,5.78
2022-12-24T14:27:38.961Z,5.45
2022-12-24T14:30:20.533Z,5.70
2022-12-24T14:32:48.150Z,5.75
2022-12-24T14:35:23.293Z,4.70
2022-12-24T14:38:00.436Z,4.60
2022-12-24T14:40:30.001Z,4.15
2022-12-24T14:43:14.083Z,5.30
2022-12-24T14:45:48.730Z,4.68
2022-12-24T14:48:27.114Z,5.60
2022-12-24T14:51:12.648Z,4.40
2022-12-24T14:53:54.306Z,5.85
2022-12-24T14:56:22.552Z,5.60
2022-12-24T14:58:49.849Z,4.40
2022-12-24T15:01:26.754Z,5.05
2022-12-24T15:04:11.614Z,4.55
2022-12-24T15:06:41.981Z,4.70
2022-12-24T15:09:19.373Z,5.22
2022-12-24T15:11:48.323Z,4.65
2022-12-24T15:14:17.152Z,3.67
2022-12-24T15:17:02.776Z,4.25
2022-12-24T15:19:35.821Z,3.67
2022-12-24T15:22:04.025Z,4.65
2022-12-24T15:24:36.454Z,4.45
2022-12-24T15:27:17.265Z,5.25
2022-12-24T15:29:46.730Z,4.75
2022-12-24T15:32:15.830Z,4.88
2022-12-24T15:34:47.918Z,4.43
2022-12-24T15:37:37.105Z,7.20
2022-12-24T15:40:19.502Z,6.18
2022-12-24T15:42:46.377Z,7.10
2022-12-24T15:45:23.200Z,6.05
2022-12-24T15:47:57.495Z,5.80
2022-12-24T15:50:35.580Z,5.00
2022-12-24T15:53:24.743Z,7.15
2022-12-24T15:56:06.653Z,8.68
2022-12-24T15:58:36.205Z,9.70
2022-12-24T16:01:28.220Z,8.52
2022-12-24T16:03:58.332Z,7.13
2022-12-24T16:06:25.776Z,7.15
2022-12-24T16:08:52.286Z,6.28
2022-12-24T16:11:24.702Z,6.47
2022-12-24T16:13:51.171Z,5.13
2022-12-24T16:16:31.325Z,5.72
2022-12-24T16:18:59.724Z,5.50
2022-12-24T16:21:31.704Z,4.55
2022-12-24T16:24:26.511Z,5.50
2022-12-24T16:26:53.745Z,4.80
2022-12-24T16:29:20.529Z,6.00
2022-12-24T16:31:51.470Z,6.40
2022-12-24T16:34:18.504Z,5.97
2022-12-24T16:36:46.367Z,6.72
2022-12-24T16:39:24.982Z,7.30
2022-12-24T16:42:11.576Z,8.70
2022-12-24T16:44:38.716Z,7.22
2022-12-24T16:47:24.135Z,8.30
2022-12-24T16:49:51.258Z,15.50
2022-12-24T16:52:23.681Z,13.55
2022-12-24T16:54:50.666Z,12.02
2022-12-24T16:57:17.631Z,13.48
2022-12-24T16:59:44.556Z,14.52
2022-12-24T17:02:14.911Z,14.43
2022-12-24T17:04:42.798Z,11.70
2022-12-24T17:07:14.078Z,10.80
2022-12-24T17:09:41.038Z,11.55
2022-12-24T17:12:07.852Z,9.82
2022-12-24T17:14:34.416Z,10.05
2022-12-24T17:17:00.932Z,9.73
2022-12-24T17:19:27.403Z,10.40
2022-12-24T17:21:53.845Z,11.23
2022-12-24T17:24:20.321Z,10.82
2022-12-24T17:26:46.795Z,15.55
2022-12-24T17:29:13.318Z,22.67
2022-12-24T17:31:40.774Z,17.02
2022-12-24T17:34:07.374Z,16.40
2022-12-24T17:36:34.487Z,18.83
2022-12-24T17:39:01.111Z,16.85
2022-12-24T17:41:27.740Z,14.77
2022-12-24T17:43:54.285Z,15.55
2022-12-24T17:46:22.805Z,35.33
2022-12-24T17:48:52.845Z,29.45
2022-12-24T17:51:22.565Z,46.85
2022-12-24T17:53:50.265Z,57.78
2022-12-24T17:56:17.605Z,101.38
2022-12-24T17:58:45.675Z,143.93
2022-12-24T18:01:18.555Z,75.70
2022-12-24T18:03:46.000Z,52.63
2022-12-24T18:06:13.558Z,23.92
2022-12-24T18:08:41.516Z,17.95
2022-12-24T18:11:20.077Z,15.57
2022-12-24T18:13:47.817Z,15.07
2022-12-24T18:16:14.333Z,27.50
2022-12-24T18:18:40.874Z,25.08
2022-12-24T18:21:07.447Z,18.15
2022-12-24T18:23:33.963Z,15.20
2022-12-24T18:26:05.677Z,15.48
2022-12-24T18:28:32.655Z,17.63
2022-12-24T18:31:08.471Z,17.27
2022-12-24T18:33:36.014Z,15.65
2022-12-24T18:36:03.197Z,16.38
2022-12-24T18:38:30.283Z,15.88
2022-12-24T18:41:02.726Z,16.40
2022-12-24T18:43:29.257Z,18.17
2022-12-24T18:45:55.744Z,15.35
2022-12-24T18:48:22.278Z,13.63
2022-12-24T18:50:55.443Z,12.75
2022-12-24T18:53:21.952Z,12.50
2022-12-24T18:55:48.448Z,12.23
2022-12-24T18:58:14.937Z,11.70
2022-12-24T19:00:41.475Z,12.68
2022-12-24T19:03:08.182Z,11.90
2022-12-24T19:05:35.258Z,14.20
2022-12-24T19:08:10.966Z,12.18
2022-12-24T19:10:48.414Z,15.25
2022-12-24T19:13:14.925Z,11.38
2022-12-24T19:15:41.969Z,10.85
2022-12-24T19:18:08.515Z,11.50
2022-12-24T19:20:38.568Z,12.50
2022-12-24T19:23:06.877Z,12.32
2022-12-24T19:25:34.268Z,10.80
2022-12-24T19:28:01.720Z,12.98
2022-12-24T19:30:28.224Z,12.32
2022-12-24T19:32:54.678Z,14.32
2022-12-24T19:35:21.170Z,12.93
2022-12-24T19:37:47.647Z,14.00
2022-12-24T19:40:14.247Z,12.45
2022-12-24T19:42:40.751Z,12.65
2022-12-24T19:45:08.265Z,14.00
2022-12-24T19:47:34.717Z,11.07
2022-12-24T19:50:01.170Z,13.15
2022-12-24T19:52:27.638Z,16.88
2022-12-24T19:54:54.143Z,14.07
2022-12-24T19:57:20.812Z,11.88
2022-12-24T19:59:47.252Z,11.35
2022-12-24T20:02:13.961Z,12.85
2022-12-24T20:04:40.721Z,12.52
2022-12-24T20:07:07.327Z,15.00
2022-12-24T20:09:34.011Z,14.77
2022-12-24T20:12:01.053Z,13.70
2022-12-24T20:14:28.580Z,13.00
2022-12-24T20:16:55.474Z,11.32
2022-12-24T20:19:22.363Z,12.18
2022-12-24T20:21:48.951Z,11.40
2022-12-24T20:24:15.626Z,12.13
2022-12-24T20:26:42.391Z,13.80
2022-12-24T20:29:10.604Z,13.93
2022-12-24T20:31:38.030Z,13.85
2022-12-24T20:34:07.279Z,12.27
2022-12-24T20:36:34.816Z,10.45
2022-12-24T20:39:01.545Z,10.73
2022-12-24T20:41:29.721Z,11.13
2022-12-24T20:44:00.795Z,10.63
2022-12-24T20:46:27.892Z,12.00
2022-12-24T20:48:55.591Z,10.68
2022-12-24T20:51:25.342Z,10.68
2022-12-24T20:53:53.728Z,9.70
2022-12-24T20:56:20.811Z,11.40
2022-12-24T20:58:47.896Z,8.73
2022-12-24T21:01:20.751Z,11.43
2022-12-24T21:03:47.741Z,10.32
2022-12-24T21:06:17.666Z,9.98
2022-12-24T21:08:45.507Z,10.43
2022-12-24T21:11:30.631Z,11.75
2022-12-24T21:13:57.172Z,19.25
2022-12-24T21:16:23.860Z,13.25
2022-12-24T21:18:50.517Z,11.77
2022-12-24T21:21:17.594Z,10.95
2022-12-24T21:23:44.257Z,11.68
2022-12-24T21:26:10.872Z,10.35
2022-12-24T21:28:37.416Z,11.02
2022-12-24T21:31:10.330Z,11.77
2022-12-24T21:33:38.459Z,12.23
2022-12-24T21:36:06.446Z,10.30
2022-12-24T21:38:33.714Z,10.85
2022-12-24T21:41:09.609Z,11.07
2022-12-24T21:43:37.060Z,10.48
2022-12-24T21:46:12.023Z,9.85
2022-12-24T21:48:57.701Z,11.32
2022-12-24T21:51:25.510Z,11.30
2022-12-24T21:54:10.798Z,10.02
2022-12-24T21:56:57.595Z,10.50
2022-12-24T21:59:27.089Z,11.38
2022-12-24T22:01:54.687Z,10.35
2022-12-24T22:04:21.384Z,11.52
2022-12-24T22:07:06.437Z,11.85
2022-12-24T22:09:51.620Z,9.68
2022-12-24T22:12:18.309Z,10.90
2022-12-24T22:14:44.988Z,10.20
2022-12-24T22:17:11.548Z,10.32
2022-12-24T22:19:38.083Z,9.90
2022-12-24T22:22:04.632Z,8.38
2022-12-24T22:24:31.121Z,8.00
2022-12-24T22:26:57.936Z,16.42
2022-12-24T22:29:24.859Z,12.43
2022-12-24T22:31:51.390Z,10.20
2022-12-24T22:34:17.883Z,12.90
2022-12-24T22:36:44.321Z,11.73
2022-12-24T22:39:10.813Z,10.43
2022-12-24T22:41:37.312Z,11.05
2022-12-24T22:44:03.886Z,10.20
2022-12-24T22:46:30.413Z,9.13
2022-12-24T22:48:56.933Z,9.35
2022-12-24T22:51:23.498Z,10.02
2022-12-24T22:53:50.298Z,9.75
2022-12-24T22:56:20.946Z,9.02
2022-12-24T22:58:54.398Z,11.80
2022-12-24T23:01:35.266Z,10.13
2022-12-24T23:04:02.406Z,8.27
2022-12-24T23:06:29.352Z,10.18
2022-12-24T23:08:55.915Z,9.65
2022-12-24T23:11:22.545Z,10.18
2022-12-24T23:14:07.624Z,8.52
2022-12-24T23:16:34.162Z,9.45
2022-12-24T23:19:01.993Z,9.98
2022-12-24T23:21:29.336Z,7.32
2022-12-24T23:24:00.519Z,8.45
2022-12-24T23:26:28.794Z,8.77
2022-12-24T23:28:56.134Z,7.90
2022-12-24T23:31:23.810Z,7.45
2022-12-24T23:33:50.512Z,10.95
2022-12-24T23:36:17.580Z,8.65
2022-12-24T23:38:44.152Z,11.02
2022-12-24T23:41:11.466Z,10.18
2022-12-24T23:43:38.164Z,11.85
2022-12-24T23:46:04.976Z,10.18
2022-12-24T23:48:31.472Z,20.45
2022-12-24T23:51:06.858Z,12.52
2022-12-24T23:53:33.550Z,12.10
2022-12-24T23:56:00.355Z,12.70
2022-12-24T23:58:27.263Z,12.48
